createdAt,value
2019-03-26T00:01:19.342Z,21.23
2019-03-26T00:05:51.792Z,22.87
2019-03-26T00:10:26.879Z,24.07
2019-03-26T00:15:03.060Z,26.50
2019-03-26T00:19:35.625Z,25.20
2019-03-26T00:24:09.590Z,25.00
2019-03-26T00:28:44.634Z,23.57
2019-03-26T00:33:17.933Z,22.63
2019-03-26T00:37:51.736Z,23.43
2019-03-26T00:42:26.195Z,18.73
2019-03-26T00:47:00.076Z,20.70
2019-03-26T00:51:34.866Z,17.50
2019-03-26T00:56:08.135Z,19.17
2019-03-26T01:00:48.732Z,16.97
2019-03-26T01:05:22.379Z,18.23
2019-03-26T01:09:57.287Z,21.40
2019-03-26T01:19:07.835Z,19.50
2019-03-26T01:23:40.022Z,15.80
2019-03-26T01:28:14.984Z,17.83
2019-03-26T01:32:48.815Z,16.20
2019-03-26T01:37:21.787Z,19.03
2019-03-26T01:41:55.922Z,15.93
2019-03-26T01:46:34.851Z,14.90
2019-03-26T01:51:06.729Z,17.20
2019-03-26T01:55:41.577Z,11.27
2019-03-26T02:00:15.741Z,13.70
2019-03-26T02:04:59.896Z,15.37
2019-03-26T02:09:29.177Z,10.57
2019-03-26T02:14:04.163Z,12.63
2019-03-26T02:18:36.950Z,10.63
2019-03-26T02:23:13.874Z,12.43
2019-03-26T02:27:46.541Z,12.33
2019-03-26T02:32:21.619Z,10.93
2019-03-26T02:36:55.611Z,12.87
2019-03-26T02:45:56.750Z,12.37
2019-03-26T02:50:29.930Z,13.47
2019-03-26T02:54:57.024Z,12.13
2019-03-26T02:59:29.833Z,12.30
2019-03-26T03:04:05.916Z,16.63
2019-03-26T03:08:37.160Z,13.13
2019-03-26T03:13:10.018Z,14.73
2019-03-26T03:26:41.732Z,13.87
2019-03-26T03:31:15.091Z,14.93
2019-03-26T03:35:52.642Z,12.83
2019-03-26T03:40:23.058Z,14.13
2019-03-26T03:44:57.444Z,14.73
2019-03-26T03:49:34.377Z,13.47
2019-03-26T03:54:06.869Z,14.67
2019-03-26T03:58:42.350Z,15.23
2019-03-26T04:03:18.837Z,15.63
2019-03-26T04:07:52.602Z,15.30
2019-03-26T04:12:27.794Z,16.10
2019-03-26T04:21:39.946Z,17.17
2019-03-26T04:26:13.847Z,16.23
2019-03-26T04:30:47.578Z,19.20
2019-03-26T04:35:24.884Z,16.57
2019-03-26T04:39:58.633Z,18.80
2019-03-26T04:44:31.654Z,18.97
2019-03-26T04:49:05.304Z,16.80
2019-03-26T04:53:38.383Z,17.73
2019-03-26T04:58:15.819Z,17.77
2019-03-26T05:02:50.677Z,16.53
2019-03-26T05:07:22.342Z,17.80
2019-03-26T05:11:58.441Z,17.83
2019-03-26T05:16:32.823Z,17.77
2019-03-26T05:21:05.549Z,16.63
2019-03-26T05:25:40.806Z,16.03
2019-03-26T05:30:16.974Z,17.33
2019-03-26T05:34:56.974Z,12.50
2019-03-26T05:39:27.475Z,24.03
2019-03-26T05:44:02.410Z,19.40
2019-03-26T05:48:36.160Z,26.77
2019-03-26T05:57:45.847Z,22.23
2019-03-26T06:02:22.389Z,23.83
2019-03-26T06:07:04.810Z,23.17
2019-03-26T06:11:31.745Z,17.43
2019-03-26T06:16:06.020Z,20.40
2019-03-26T06:20:43.766Z,27.87
2019-03-26T06:25:37.698Z,27.43
2019-03-26T06:34:46.458Z,27.47
2019-03-26T06:39:22.447Z,23.10
2019-03-26T06:43:57.535Z,14.67
2019-03-26T06:48:31.299Z,22.63
2019-03-26T06:53:03.642Z,26.40
2019-03-26T06:57:36.252Z,25.83
2019-03-26T07:02:08.051Z,23.93
2019-03-26T07:11:24.739Z,25.17
2019-03-26T07:16:17.305Z,21.40
2019-03-26T07:20:51.492Z,15.13
2019-03-26T07:25:23.696Z,18.57
2019-03-26T07:29:57.348Z,12.20
2019-03-26T07:34:31.932Z,9.90
2019-03-26T07:39:05.583Z,14.23
2019-03-26T07:43:37.085Z,16.33
2019-03-26T07:48:07.909Z,18.13
2019-03-26T07:52:45.892Z,18.10
2019-03-26T07:57:24.391Z,17.13
2019-03-26T08:02:18.833Z,17.00
2019-03-26T08:06:58.285Z,11.80
2019-03-26T08:11:31.796Z,15.33
2019-03-26T08:16:04.772Z,18.83
2019-03-26T08:20:43.800Z,18.20
2019-03-26T08:25:17.657Z,16.53
2019-03-26T08:29:51.847Z,16.47
2019-03-26T08:34:24.924Z,18.70
2019-03-26T08:39:20.168Z,15.87
2019-03-26T08:43:57.618Z,14.60
2019-03-26T08:48:32.559Z,14.93
2019-03-26T08:53:04.835Z,12.87
2019-03-26T08:57:38.137Z,17.03
2019-03-26T09:02:12.582Z,15.83
2019-03-26T09:06:47.126Z,16.07
2019-03-26T09:11:19.844Z,15.53
2019-03-26T13:32:47.404Z,3.67
2019-03-26T13:37:21.908Z,3.70
2019-03-26T13:41:55.071Z,2.87
2019-03-26T13:46:30.181Z,3.97
2019-03-26T13:51:02.426Z,5.83
2019-03-26T13:55:40.219Z,4.20
2019-03-26T14:00:12.373Z,5.13
2019-03-26T14:04:43.090Z,4.03
2019-03-26T14:09:17.019Z,6.57
2019-03-26T14:13:50.498Z,5.87
2019-03-26T14:18:26.749Z,6.03
2019-03-26T14:23:00.593Z,9.03
2019-03-26T14:27:33.273Z,6.23
2019-03-26T14:32:06.915Z,9.00
2019-03-26T14:36:40.754Z,8.67
2019-03-26T14:41:53.298Z,7.30
2019-03-26T14:46:26.586Z,6.03
2019-03-26T14:51:02.232Z,6.60
2019-03-26T14:55:38.655Z,5.03
2019-03-26T15:00:11.138Z,5.57
2019-03-26T15:04:43.178Z,3.23
2019-03-26T15:09:18.762Z,1.37
2019-03-26T15:13:51.492Z,1.37
2019-03-26T15:18:26.962Z,1.90
2019-03-26T15:22:59.693Z,1.40
2019-03-26T15:27:32.818Z,1.53
2019-03-26T15:32:06.816Z,1.80
2019-03-26T15:36:41.224Z,2.10
2019-03-26T15:41:21.910Z,1.80
2019-03-26T15:45:52.013Z,2.43
2019-03-26T15:50:30.734Z,3.27
2019-03-26T15:55:02.400Z,3.03
2019-03-26T15:59:35.204Z,3.00
2019-03-26T16:04:17.920Z,3.70
2019-03-26T16:08:51.579Z,3.23
2019-03-26T16:13:24.098Z,3.30
2019-03-26T16:17:58.188Z,3.70
2019-03-26T16:22:32.543Z,4.30
2019-03-26T16:27:10.099Z,4.07
2019-03-26T16:32:02.712Z,4.33
2019-03-26T16:36:35.360Z,4.10
2019-03-26T16:45:43.701Z,5.57
2019-03-26T16:50:21.524Z,5.80
2019-03-26T16:54:54.550Z,5.40
2019-03-26T16:59:29.921Z,4.57
2019-03-26T17:04:02.976Z,4.17
2019-03-26T17:08:38.068Z,4.87
2019-03-26T17:13:12.142Z,4.90
2019-03-26T17:17:47.147Z,5.10
2019-03-26T17:22:21.362Z,6.03
2019-03-26T17:26:55.258Z,6.83
2019-03-26T17:31:29.055Z,6.47
2019-03-26T17:36:02.251Z,6.57
2019-03-26T17:40:35.792Z,6.27
2019-03-26T17:45:10.179Z,7.07
2019-03-26T17:49:42.805Z,7.30
2019-03-26T17:54:18.641Z,7.13
2019-03-26T17:58:52.513Z,5.50
2019-03-26T18:07:58.592Z,5.10
2019-03-26T18:12:34.275Z,4.60
2019-03-26T18:17:07.452Z,5.10
2019-03-26T18:21:50.848Z,4.70
2019-03-26T18:26:17.419Z,5.43
2019-03-26T18:30:54.915Z,5.13
2019-03-26T18:35:30.502Z,5.27
2019-03-26T18:40:01.115Z,4.40
2019-03-26T18:44:41.693Z,4.17
2019-03-26T18:49:14.798Z,4.50
2019-03-26T18:53:50.638Z,5.30
2019-03-26T18:58:42.791Z,3.97
2019-03-26T19:03:20.910Z,5.33
2019-03-26T19:07:55.350Z,6.73
2019-03-26T19:12:31.739Z,3.47
2019-03-26T19:17:02.790Z,5.60
2019-03-26T19:21:38.307Z,6.10
2019-03-26T19:26:14.219Z,3.83
2019-03-26T19:30:49.979Z,3.97
2019-03-26T19:35:22.855Z,4.27
2019-03-26T19:39:55.604Z,3.83
2019-03-26T19:49:01.672Z,3.13
2019-03-26T19:53:34.789Z,4.00
2019-03-26T19:58:10.819Z,4.43
2019-03-26T20:03:02.791Z,3.10
2019-03-26T20:07:35.505Z,3.47
2019-03-26T20:12:07.322Z,3.40
2019-03-26T20:16:42.144Z,3.40
2019-03-26T20:21:12.621Z,2.53
2019-03-26T20:25:45.946Z,2.63
2019-03-26T20:30:18.588Z,2.57
2019-03-26T20:34:55.526Z,3.83
2019-03-26T20:39:49.669Z,3.00
2019-03-26T20:44:25.518Z,3.10
2019-03-26T20:48:58.256Z,2.30
2019-03-26T20:53:30.479Z,3.07
2019-03-26T21:02:34.903Z,1.80
2019-03-26T21:07:10.284Z,3.10
2019-03-26T21:16:18.487Z,2.80
2019-03-26T21:20:53.253Z,2.67
2019-03-26T21:25:28.329Z,3.70
2019-03-26T21:30:11.590Z,3.97
2019-03-26T21:34:37.880Z,3.70
2019-03-26T21:39:10.441Z,2.53
2019-03-26T21:43:44.767Z,3.17
2019-03-26T21:48:17.253Z,2.67
2019-03-26T21:52:56.668Z,2.20
2019-03-26T21:57:30.245Z,2.87
2019-03-26T22:02:03.344Z,2.63
2019-03-26T22:06:45.031Z,3.77
2019-03-26T22:11:19.227Z,3.50
2019-03-26T22:15:50.108Z,4.40
2019-03-26T22:20:42.120Z,3.37
2019-03-26T22:25:12.897Z,3.13
2019-03-26T22:29:50.611Z,3.33
2019-03-26T22:34:42.445Z,2.80
2019-03-26T22:39:17.000Z,2.23
2019-03-26T22:43:48.815Z,3.70
2019-03-26T22:48:22.412Z,3.33
2019-03-26T22:52:57.369Z,3.00
2019-03-26T22:57:32.693Z,3.00
2019-03-26T23:02:07.753Z,4.00
2019-03-26T23:06:42.058Z,2.33
2019-03-26T23:11:12.744Z,3.20
2019-03-26T23:15:45.293Z,3.03
2019-03-26T23:20:22.962Z,3.40
2019-03-26T23:25:00.777Z,3.17
2019-03-26T23:29:30.653Z,2.60
2019-03-26T23:34:02.813Z,3.27
2019-03-26T23:38:37.035Z,2.37
2019-03-26T23:43:11.058Z,3.13
2019-03-26T23:47:43.606Z,2.47
2019-03-26T23:52:16.806Z,4.20
2019-03-26T23:56:51.059Z,3.57
